sensor_id;sensor_type;location;lat;lon;timestamp;P1;durP1;ratioP1;P2;durP2;ratioP2
15356;SDS011;7778;48.792;9.260;2023-04-16T00:02:14;16.23;;;9.27;;
15356;SDS011;7778;48.792;9.260;2023-04-16T00:04:59;14.90;;;8.82;;
15356;SDS011;7778;48.792;9.260;2023-04-16T00:07:45;16.98;;;10.23;;
15356;SDS011;7778;48.792;9.260;2023-04-16T00:10:34;20.33;;;10.23;;
15356;SDS011;7778;48.792;9.260;2023-04-16T00:13:21;15.40;;;9.43;;
15356;SDS011;7778;48.792;9.260;2023-04-16T00:16:08;16.58;;;9.98;;
15356;SDS011;7778;48.792;9.260;2023-04-16T00:18:54;15.38;;;9.00;;
15356;SDS011;7778;48.792;9.260;2023-04-16T00:21:39;14.90;;;9.07;;
15356;SDS011;7778;48.792;9.260;2023-04-16T00:24:25;16.10;;;9.45;;
15356;SDS011;7778;48.792;9.260;2023-04-16T00:27:11;16.17;;;9.80;;
15356;SDS011;7778;48.792;9.260;2023-04-16T00:29:58;15.52;;;9.40;;
15356;SDS011;7778;48.792;9.260;2023-04-16T00:32:43;16.65;;;9.52;;
15356;SDS011;7778;48.792;9.260;2023-04-16T00:35:29;14.73;;;9.10;;
15356;SDS011;7778;48.792;9.260;2023-04-16T00:38:14;16.55;;;9.85;;
15356;SDS011;7778;48.792;9.260;2023-04-16T00:41:00;14.82;;;8.98;;
15356;SDS011;7778;48.792;9.260;2023-04-16T00:43:46;16.17;;;9.57;;
15356;SDS011;7778;48.792;9.260;2023-04-16T00:46:32;15.02;;;9.77;;
15356;SDS011;7778;48.792;9.260;2023-04-16T00:49:19;15.27;;;9.30;;
15356;SDS011;7778;48.792;9.260;2023-04-16T00:52:05;14.73;;;8.85;;
15356;SDS011;7778;48.792;9.260;2023-04-16T00:54:51;14.48;;;9.80;;
15356;SDS011;7778;48.792;9.260;2023-04-16T00:57:37;14.63;;;8.93;;
15356;SDS011;7778;48.792;9.260;2023-04-16T01:00:23;15.50;;;9.35;;
15356;SDS011;7778;48.792;9.260;2023-04-16T01:03:10;16.20;;;9.90;;
15356;SDS011;7778;48.792;9.260;2023-04-16T01:05:56;17.58;;;10.32;;
15356;SDS011;7778;48.792;9.260;2023-04-16T01:08:41;14.48;;;8.23;;
15356;SDS011;7778;48.792;9.260;2023-04-16T01:11:28;14.27;;;9.45;;
15356;SDS011;7778;48.792;9.260;2023-04-16T01:14:14;14.73;;;9.30;;
15356;SDS011;7778;48.792;9.260;2023-04-16T01:17:00;15.57;;;8.35;;
15356;SDS011;7778;48.792;9.260;2023-04-16T01:19:47;13.23;;;8.80;;
15356;SDS011;7778;48.792;9.260;2023-04-16T01:22:33;17.67;;;9.45;;
15356;SDS011;7778;48.792;9.260;2023-04-16T01:25:19;15.85;;;8.95;;
15356;SDS011;7778;48.792;9.260;2023-04-16T01:28:04;15.93;;;9.25;;
15356;SDS011;7778;48.792;9.260;2023-04-16T01:30:51;14.27;;;8.88;;
15356;SDS011;7778;48.792;9.260;2023-04-16T01:33:36;12.57;;;8.27;;
15356;SDS011;7778;48.792;9.260;2023-04-16T01:36:22;13.80;;;7.95;;
15356;SDS011;7778;48.792;9.260;2023-04-16T01:39:10;13.27;;;8.27;;
15356;SDS011;7778;48.792;9.260;2023-04-16T01:41:58;12.55;;;7.72;;
15356;SDS011;7778;48.792;9.260;2023-04-16T01:44:45;14.73;;;8.18;;
15356;SDS011;7778;48.792;9.260;2023-04-16T01:47:31;13.13;;;8.02;;
15356;SDS011;7778;48.792;9.260;2023-04-16T01:50:17;14.70;;;6.60;;
15356;SDS011;7778;48.792;9.260;2023-04-16T01:53:03;12.20;;;8.23;;
15356;SDS011;7778;48.792;9.260;2023-04-16T01:55:50;11.52;;;7.20;;
15356;SDS011;7778;48.792;9.260;2023-04-16T01:58:35;12.38;;;7.28;;
15356;SDS011;7778;48.792;9.260;2023-04-16T02:01:21;14.55;;;9.15;;
15356;SDS011;7778;48.792;9.260;2023-04-16T02:04:07;13.05;;;7.95;;
15356;SDS011;7778;48.792;9.260;2023-04-16T02:06:53;12.02;;;7.65;;
15356;SDS011;7778;48.792;9.260;2023-04-16T02:09:39;13.82;;;8.40;;
15356;SDS011;7778;48.792;9.260;2023-04-16T02:12:26;13.02;;;7.55;;
15356;SDS011;7778;48.792;9.260;2023-04-16T02:15:12;13.85;;;7.75;;
15356;SDS011;7778;48.792;9.260;2023-04-16T02:17:58;13.15;;;7.72;;
15356;SDS011;7778;48.792;9.260;2023-04-16T02:20:44;12.00;;;7.38;;
15356;SDS011;7778;48.792;9.260;2023-04-16T02:23:32;13.02;;;8.32;;
15356;SDS011;7778;48.792;9.260;2023-04-16T02:26:18;11.52;;;7.63;;
15356;SDS011;7778;48.792;9.260;2023-04-16T02:29:05;13.45;;;7.32;;
15356;SDS011;7778;48.792;9.260;2023-04-16T02:31:50;14.18;;;7.20;;
15356;SDS011;7778;48.792;9.260;2023-04-16T02:34:36;12.50;;;7.10;;
15356;SDS011;7778;48.792;9.260;2023-04-16T02:37:22;11.52;;;7.15;;
15356;SDS011;7778;48.792;9.260;2023-04-16T02:40:08;12.57;;;7.07;;
15356;SDS011;7778;48.792;9.260;2023-04-16T02:42:55;12.45;;;7.40;;
15356;SDS011;7778;48.792;9.260;2023-04-16T02:45:43;11.13;;;6.78;;
15356;SDS011;7778;48.792;9.260;2023-04-16T02:48:28;9.82;;;6.40;;
15356;SDS011;7778;48.792;9.260;2023-04-16T02:51:14;15.43;;;6.95;;
15356;SDS011;7778;48.792;9.260;2023-04-16T02:53:59;11.60;;;7.05;;
15356;SDS011;7778;48.792;9.260;2023-04-16T02:56:45;12.18;;;7.47;;
15356;SDS011;7778;48.792;9.260;2023-04-16T02:59:31;12.65;;;7.97;;
15356;SDS011;7778;48.792;9.260;2023-04-16T03:02:18;13.75;;;7.70;;
15356;SDS011;7778;48.792;9.260;2023-04-16T03:05:04;11.07;;;6.97;;
15356;SDS011;7778;48.792;9.260;2023-04-16T03:07:50;12.40;;;7.60;;
15356;SDS011;7778;48.792;9.260;2023-04-16T03:10:39;13.38;;;7.45;;
15356;SDS011;7778;48.792;9.260;2023-04-16T03:13:24;12.00;;;7.28;;
15356;SDS011;7778;48.792;9.260;2023-04-16T03:16:10;13.15;;;8.02;;
15356;SDS011;7778;48.792;9.260;2023-04-16T03:18:57;13.55;;;7.55;;
15356;SDS011;7778;48.792;9.260;2023-04-16T03:21:42;12.43;;;7.57;;
15356;SDS011;7778;48.792;9.260;2023-04-16T03:24:28;12.23;;;6.78;;
15356;SDS011;7778;48.792;9.260;2023-04-16T03:27:13;13.32;;;8.43;;
15356;SDS011;7778;48.792;9.260;2023-04-16T03:29:59;13.45;;;8.32;;
15356;SDS011;7778;48.792;9.260;2023-04-16T03:32:44;13.35;;;7.35;;
15356;SDS011;7778;48.792;9.260;2023-04-16T03:35:31;13.02;;;7.22;;
15356;SDS011;7778;48.792;9.260;2023-04-16T03:38:17;13.93;;;7.38;;
15356;SDS011;7778;48.792;9.260;2023-04-16T03:41:02;13.95;;;7.50;;
15356;SDS011;7778;48.792;9.260;2023-04-16T03:43:48;11.93;;;7.57;;
15356;SDS011;7778;48.792;9.260;2023-04-16T03:46:33;12.63;;;7.40;;
15356;SDS011;7778;48.792;9.260;2023-04-16T03:49:19;13.00;;;8.00;;
15356;SDS011;7778;48.792;9.260;2023-04-16T03:52:06;15.13;;;7.88;;
15356;SDS011;7778;48.792;9.260;2023-04-16T03:54:51;14.05;;;8.13;;
15356;SDS011;7778;48.792;9.260;2023-04-16T03:57:37;11.98;;;7.28;;
15356;SDS011;7778;48.792;9.260;2023-04-16T04:00:22;13.60;;;7.80;;
15356;SDS011;7778;48.792;9.260;2023-04-16T04:03:08;13.20;;;7.50;;
15356;SDS011;7778;48.792;9.260;2023-04-16T04:05:54;12.82;;;7.85;;
15356;SDS011;7778;48.792;9.260;2023-04-16T04:08:41;14.38;;;8.00;;
15356;SDS011;7778;48.792;9.260;2023-04-16T04:11:27;15.00;;;8.93;;
15356;SDS011;7778;48.792;9.260;2023-04-16T04:14:12;14.45;;;8.50;;
15356;SDS011;7778;48.792;9.260;2023-04-16T04:16:58;16.35;;;8.85;;
15356;SDS011;7778;48.792;9.260;2023-04-16T04:19:43;17.30;;;9.60;;
15356;SDS011;7778;48.792;9.260;2023-04-16T04:22:29;13.27;;;8.80;;
15356;SDS011;7778;48.792;9.260;2023-04-16T04:25:16;19.15;;;10.20;;
15356;SDS011;7778;48.792;9.260;2023-04-16T04:28:01;18.52;;;9.63;;
15356;SDS011;7778;48.792;9.260;2023-04-16T04:30:47;16.70;;;9.15;;
15356;SDS011;7778;48.792;9.260;2023-04-16T04:33:33;15.93;;;8.68;;
15356;SDS011;7778;48.792;9.260;2023-04-16T04:36:19;15.27;;;9.13;;
15356;SDS011;7778;48.792;9.260;2023-04-16T04:39:04;18.45;;;9.93;;
15356;SDS011;7778;48.792;9.260;2023-04-16T04:41:51;18.00;;;8.98;;
15356;SDS011;7778;48.792;9.260;2023-04-16T04:44:37;19.00;;;8.95;;
15356;SDS011;7778;48.792;9.260;2023-04-16T04:47:22;18.67;;;9.25;;
15356;SDS011;7778;48.792;9.260;2023-04-16T04:50:08;17.83;;;9.35;;
15356;SDS011;7778;48.792;9.260;2023-04-16T04:52:54;14.90;;;9.00;;
15356;SDS011;7778;48.792;9.260;2023-04-16T04:55:40;16.20;;;9.15;;
15356;SDS011;7778;48.792;9.260;2023-04-16T04:58:27;20.70;;;10.23;;
15356;SDS011;7778;48.792;9.260;2023-04-16T05:01:12;20.50;;;8.55;;
15356;SDS011;7778;48.792;9.260;2023-04-16T05:03:58;19.48;;;9.82;;
15356;SDS011;7778;48.792;9.260;2023-04-16T05:06:43;15.98;;;8.93;;
15356;SDS011;7778;48.792;9.260;2023-04-16T05:09:29;18.92;;;10.38;;
15356;SDS011;7778;48.792;9.260;2023-04-16T05:12:14;19.95;;;10.32;;
15356;SDS011;7778;48.792;9.260;2023-04-16T05:15:01;15.82;;;8.40;;
15356;SDS011;7778;48.792;9.260;2023-04-16T05:17:47;18.48;;;9.48;;
15356;SDS011;7778;48.792;9.260;2023-04-16T05:20:32;17.70;;;8.88;;
15356;SDS011;7778;48.792;9.260;2023-04-16T05:23:20;17.58;;;9.30;;
15356;SDS011;7778;48.792;9.260;2023-04-16T05:26:06;18.70;;;9.35;;
15356;SDS011;7778;48.792;9.260;2023-04-16T05:28:51;19.42;;;10.48;;
15356;SDS011;7778;48.792;9.260;2023-04-16T05:31:38;22.25;;;10.07;;
15356;SDS011;7778;48.792;9.260;2023-04-16T05:34:24;19.15;;;9.45;;
15356;SDS011;7778;48.792;9.260;2023-04-16T05:37:10;16.00;;;8.00;;
15356;SDS011;7778;48.792;9.260;2023-04-16T05:39:55;18.50;;;10.23;;
15356;SDS011;7778;48.792;9.260;2023-04-16T05:42:41;21.45;;;10.48;;
15356;SDS011;7778;48.792;9.260;2023-04-16T05:45:26;19.40;;;10.23;;
15356;SDS011;7778;48.792;9.260;2023-04-16T05:48:13;21.27;;;11.02;;
15356;SDS011;7778;48.792;9.260;2023-04-16T05:50:59;23.13;;;12.25;;
15356;SDS011;7778;48.792;9.260;2023-04-16T05:53:45;23.25;;;12.05;;
15356;SDS011;7778;48.792;9.260;2023-04-16T05:56:31;23.88;;;12.05;;
15356;SDS011;7778;48.792;9.260;2023-04-16T05:59:17;25.17;;;11.77;;
15356;SDS011;7778;48.792;9.260;2023-04-16T06:02:02;26.33;;;13.00;;
15356;SDS011;7778;48.792;9.260;2023-04-16T06:04:49;28.40;;;13.80;;
15356;SDS011;7778;48.792;9.260;2023-04-16T06:07:35;33.13;;;15.05;;
15356;SDS011;7778;48.792;9.260;2023-04-16T06:10:20;34.15;;;15.80;;
15356;SDS011;7778;48.792;9.260;2023-04-16T06:13:06;28.58;;;14.98;;
15356;SDS011;7778;48.792;9.260;2023-04-16T06:15:52;32.47;;;15.10;;
15356;SDS011;7778;48.792;9.260;2023-04-16T06:18:37;29.70;;;14.50;;
15356;SDS011;7778;48.792;9.260;2023-04-16T06:21:24;27.02;;;14.13;;
15356;SDS011;7778;48.792;9.260;2023-04-16T06:24:10;32.70;;;15.27;;
15356;SDS011;7778;48.792;9.260;2023-04-16T06:26:56;35.55;;;16.98;;
15356;SDS011;7778;48.792;9.260;2023-04-16T06:29:41;35.80;;;17.02;;
15356;SDS011;7778;48.792;9.260;2023-04-16T06:32:27;29.33;;;14.57;;
15356;SDS011;7778;48.792;9.260;2023-04-16T06:35:13;30.42;;;15.27;;
15356;SDS011;7778;48.792;9.260;2023-04-16T06:37:59;27.80;;;14.80;;
15356;SDS011;7778;48.792;9.260;2023-04-16T06:40:47;31.05;;;15.00;;
15356;SDS011;7778;48.792;9.260;2023-04-16T06:43:36;29.52;;;14.48;;
15356;SDS011;7778;48.792;9.260;2023-04-16T06:46:21;32.30;;;15.82;;
15356;SDS011;7778;48.792;9.260;2023-04-16T06:49:07;34.50;;;16.08;;
15356;SDS011;7778;48.792;9.260;2023-04-16T06:51:53;29.73;;;14.75;;
15356;SDS011;7778;48.792;9.260;2023-04-16T06:54:40;27.85;;;14.57;;
15356;SDS011;7778;48.792;9.260;2023-04-16T06:57:26;33.50;;;14.60;;
15356;SDS011;7778;48.792;9.260;2023-04-16T07:00:11;29.45;;;14.48;;
15356;SDS011;7778;48.792;9.260;2023-04-16T07:02:59;34.45;;;15.00;;
15356;SDS011;7778;48.792;9.260;2023-04-16T07:05:45;29.40;;;15.75;;
15356;SDS011;7778;48.792;9.260;2023-04-16T07:08:31;31.50;;;15.55;;
15356;SDS011;7778;48.792;9.260;2023-04-16T07:11:17;34.47;;;16.60;;
15356;SDS011;7778;48.792;9.260;2023-04-16T07:14:03;30.33;;;14.88;;
15356;SDS011;7778;48.792;9.260;2023-04-16T07:16:49;32.63;;;14.77;;
15356;SDS011;7778;48.792;9.260;2023-04-16T07:19:34;26.63;;;14.70;;
15356;SDS011;7778;48.792;9.260;2023-04-16T07:22:20;33.70;;;15.27;;
15356;SDS011;7778;48.792;9.260;2023-04-16T07:25:06;29.10;;;15.43;;
15356;SDS011;7778;48.792;9.260;2023-04-16T07:27:54;32.67;;;15.65;;
15356;SDS011;7778;48.792;9.260;2023-04-16T07:30:39;29.67;;;15.80;;
15356;SDS011;7778;48.792;9.260;2023-04-16T07:33:25;33.03;;;15.77;;
15356;SDS011;7778;48.792;9.260;2023-04-16T07:36:11;26.90;;;13.30;;
15356;SDS011;7778;48.792;9.260;2023-04-16T07:38:56;32.75;;;14.82;;
15356;SDS011;7778;48.792;9.260;2023-04-16T07:41:42;27.48;;;14.52;;
15356;SDS011;7778;48.792;9.260;2023-04-16T07:44:29;26.33;;;14.15;;
15356;SDS011;7778;48.792;9.260;2023-04-16T07:47:15;25.48;;;14.07;;
15356;SDS011;7778;48.792;9.260;2023-04-16T07:50:00;27.85;;;14.57;;
15356;SDS011;7778;48.792;9.260;2023-04-16T07:52:47;28.02;;;13.90;;
15356;SDS011;7778;48.792;9.260;2023-04-16T07:55:32;27.52;;;14.23;;
15356;SDS011;7778;48.792;9.260;2023-04-16T07:58:18;24.92;;;12.90;;
15356;SDS011;7778;48.792;9.260;2023-04-16T08:01:05;26.58;;;14.52;;
15356;SDS011;7778;48.792;9.260;2023-04-16T08:03:50;24.80;;;12.30;;
15356;SDS011;7778;48.792;9.260;2023-04-16T08:06:36;23.52;;;13.57;;
15356;SDS011;7778;48.792;9.260;2023-04-16T08:09:22;27.48;;;13.63;;
15356;SDS011;7778;48.792;9.260;2023-04-16T08:12:11;24.77;;;12.55;;
15356;SDS011;7778;48.792;9.260;2023-04-16T08:14:56;24.63;;;12.18;;
15356;SDS011;7778;48.792;9.260;2023-04-16T08:17:43;23.73;;;12.48;;
15356;SDS011;7778;48.792;9.260;2023-04-16T08:20:29;31.02;;;13.57;;
15356;SDS011;7778;48.792;9.260;2023-04-16T08:23:16;23.48;;;12.07;;
15356;SDS011;7778;48.792;9.260;2023-04-16T08:26:02;23.15;;;11.63;;
15356;SDS011;7778;48.792;9.260;2023-04-16T08:28:47;23.90;;;12.07;;
15356;SDS011;7778;48.792;9.260;2023-04-16T08:31:34;24.15;;;12.48;;
15356;SDS011;7778;48.792;9.260;2023-04-16T08:34:21;24.25;;;12.80;;
15356;SDS011;7778;48.792;9.260;2023-04-16T08:37:07;20.35;;;11.23;;
15356;SDS011;7778;48.792;9.260;2023-04-16T08:39:52;23.05;;;11.80;;
15356;SDS011;7778;48.792;9.260;2023-04-16T08:42:38;19.70;;;10.75;;
15356;SDS011;7778;48.792;9.260;2023-04-16T08:45:29;22.33;;;12.10;;
15356;SDS011;7778;48.792;9.260;2023-04-16T08:48:19;23.75;;;12.38;;
15356;SDS011;7778;48.792;9.260;2023-04-16T08:51:09;24.85;;;11.75;;
15356;SDS011;7778;48.792;9.260;2023-04-16T08:53:58;22.30;;;11.23;;
15356;SDS011;7778;48.792;9.260;2023-04-16T08:56:49;19.42;;;11.00;;
15356;SDS011;7778;48.792;9.260;2023-04-16T08:59:35;19.08;;;11.30;;
15356;SDS011;7778;48.792;9.260;2023-04-16T09:02:22;23.55;;;11.63;;
15356;SDS011;7778;48.792;9.260;2023-04-16T09:05:11;24.70;;;11.60;;
15356;SDS011;7778;48.792;9.260;2023-04-16T09:08:03;22.33;;;11.57;;
15356;SDS011;7778;48.792;9.260;2023-04-16T09:10:49;20.20;;;11.88;;
15356;SDS011;7778;48.792;9.260;2023-04-16T09:13:36;21.00;;;10.88;;
15356;SDS011;7778;48.792;9.260;2023-04-16T09:16:22;22.58;;;11.95;;
15356;SDS011;7778;48.792;9.260;2023-04-16T09:19:09;23.33;;;11.85;;
15356;SDS011;7778;48.792;9.260;2023-04-16T09:21:55;20.63;;;11.65;;
15356;SDS011;7778;48.792;9.260;2023-04-16T09:24:42;18.73;;;10.38;;
15356;SDS011;7778;48.792;9.260;2023-04-16T09:27:28;25.83;;;12.57;;
15356;SDS011;7778;48.792;9.260;2023-04-16T09:30:18;20.05;;;11.55;;
15356;SDS011;7778;48.792;9.260;2023-04-16T09:33:13;21.27;;;11.10;;
15356;SDS011;7778;48.792;9.260;2023-04-16T09:36:05;24.17;;;11.63;;
15356;SDS011;7778;48.792;9.260;2023-04-16T09:38:51;21.98;;;11.23;;
15356;SDS011;7778;48.792;9.260;2023-04-16T09:41:40;19.98;;;12.00;;
15356;SDS011;7778;48.792;9.260;2023-04-16T09:44:33;22.17;;;11.30;;
15356;SDS011;7778;48.792;9.260;2023-04-16T09:47:20;25.42;;;12.32;;
15356;SDS011;7778;48.792;9.260;2023-04-16T09:50:07;22.42;;;11.20;;
15356;SDS011;7778;48.792;9.260;2023-04-16T09:53:00;29.33;;;12.23;;
15356;SDS011;7778;48.792;9.260;2023-04-16T09:55:47;24.38;;;11.05;;
15356;SDS011;7778;48.792;9.260;2023-04-16T09:58:35;20.10;;;11.27;;
15356;SDS011;7778;48.792;9.260;2023-04-16T10:01:21;23.20;;;11.75;;
15356;SDS011;7778;48.792;9.260;2023-04-16T10:04:08;18.23;;;11.35;;
15356;SDS011;7778;48.792;9.260;2023-04-16T10:07:03;20.25;;;10.55;;
15356;SDS011;7778;48.792;9.260;2023-04-16T10:09:50;20.17;;;10.95;;
15356;SDS011;7778;48.792;9.260;2023-04-16T10:12:36;26.77;;;11.35;;
15356;SDS011;7778;48.792;9.260;2023-04-16T10:15:27;17.60;;;10.55;;
15356;SDS011;7778;48.792;9.260;2023-04-16T10:18:13;20.05;;;11.25;;
15356;SDS011;7778;48.792;9.260;2023-04-16T10:21:00;24.05;;;11.63;;
15356;SDS011;7778;48.792;9.260;2023-04-16T10:23:46;23.70;;;11.60;;
15356;SDS011;7778;48.792;9.260;2023-04-16T10:26:34;16.60;;;9.98;;
15356;SDS011;7778;48.792;9.260;2023-04-16T10:29:20;23.95;;;11.15;;
15356;SDS011;7778;48.792;9.260;2023-04-16T10:32:08;21.25;;;10.55;;
15356;SDS011;7778;48.792;9.260;2023-04-16T10:34:53;20.48;;;12.20;;
15356;SDS011;7778;48.792;9.260;2023-04-16T10:37:39;22.85;;;10.90;;
15356;SDS011;7778;48.792;9.260;2023-04-16T10:40:27;24.02;;;11.30;;
15356;SDS011;7778;48.792;9.260;2023-04-16T10:43:16;21.13;;;10.93;;
15356;SDS011;7778;48.792;9.260;2023-04-16T10:46:18;20.10;;;10.77;;
15356;SDS011;7778;48.792;9.260;2023-04-16T10:49:14;21.08;;;10.90;;
15356;SDS011;7778;48.792;9.260;2023-04-16T10:52:06;20.58;;;10.23;;
15356;SDS011;7778;48.792;9.260;2023-04-16T10:54:55;20.38;;;9.45;;
15356;SDS011;7778;48.792;9.260;2023-04-16T10:57:44;18.58;;;9.80;;
15356;SDS011;7778;48.792;9.260;2023-04-16T11:00:47;17.88;;;9.88;;
15356;SDS011;7778;48.792;9.260;2023-04-16T11:03:34;19.65;;;9.95;;
15356;SDS011;7778;48.792;9.260;2023-04-16T11:06:24;21.08;;;10.77;;
15356;SDS011;7778;48.792;9.260;2023-04-16T11:09:18;17.50;;;9.85;;
15356;SDS011;7778;48.792;9.260;2023-04-16T11:12:39;18.38;;;9.85;;
15356;SDS011;7778;48.792;9.260;2023-04-16T11:15:27;16.95;;;8.88;;
15356;SDS011;7778;48.792;9.260;2023-04-16T11:18:17;18.00;;;8.85;;
15356;SDS011;7778;48.792;9.260;2023-04-16T11:21:05;15.73;;;9.07;;
15356;SDS011;7778;48.792;9.260;2023-04-16T11:23:56;17.70;;;9.10;;
15356;SDS011;7778;48.792;9.260;2023-04-16T11:26:41;20.00;;;8.55;;
15356;SDS011;7778;48.792;9.260;2023-04-16T11:29:27;15.35;;;7.68;;
15356;SDS011;7778;48.792;9.260;2023-04-16T11:32:19;13.30;;;7.22;;
15356;SDS011;7778;48.792;9.260;2023-04-16T11:35:11;11.40;;;6.13;;
15356;SDS011;7778;48.792;9.260;2023-04-16T11:37:58;13.18;;;7.35;;
15356;SDS011;7778;48.792;9.260;2023-04-16T11:40:48;12.27;;;6.97;;
15356;SDS011;7778;48.792;9.260;2023-04-16T11:43:36;16.25;;;6.55;;
15356;SDS011;7778;48.792;9.260;2023-04-16T11:46:22;14.68;;;7.22;;
15356;SDS011;7778;48.792;9.260;2023-04-16T11:49:28;11.02;;;6.30;;
15356;SDS011;7778;48.792;9.260;2023-04-16T11:52:23;12.93;;;6.70;;
15356;SDS011;7778;48.792;9.260;2023-04-16T11:55:11;11.15;;;5.07;;
15356;SDS011;7778;48.792;9.260;2023-04-16T11:57:58;11.40;;;5.97;;
15356;SDS011;7778;48.792;9.260;2023-04-16T12:00:56;11.05;;;6.40;;
15356;SDS011;7778;48.792;9.260;2023-04-16T12:03:44;10.70;;;5.70;;
15356;SDS011;7778;48.792;9.260;2023-04-16T12:06:31;10.02;;;5.45;;
15356;SDS011;7778;48.792;9.260;2023-04-16T12:09:23;11.65;;;6.45;;
15356;SDS011;7778;48.792;9.260;2023-04-16T12:12:26;14.65;;;7.57;;
15356;SDS011;7778;48.792;9.260;2023-04-16T12:15:15;11.45;;;5.82;;
15356;SDS011;7778;48.792;9.260;2023-04-16T12:18:07;11.57;;;6.50;;
15356;SDS011;7778;48.792;9.260;2023-04-16T12:20:53;10.65;;;5.93;;
15356;SDS011;7778;48.792;9.260;2023-04-16T12:23:38;9.02;;;5.28;;
15356;SDS011;7778;48.792;9.260;2023-04-16T12:26:25;10.02;;;5.20;;
15356;SDS011;7778;48.792;9.260;2023-04-16T12:29:17;10.65;;;6.25;;
15356;SDS011;7778;48.792;9.260;2023-04-16T12:32:15;9.93;;;5.10;;
15356;SDS011;7778;48.792;9.260;2023-04-16T12:35:06;11.15;;;5.20;;
15356;SDS011;7778;48.792;9.260;2023-04-16T12:37:53;9.68;;;4.60;;
15356;SDS011;7778;48.792;9.260;2023-04-16T12:40:39;7.28;;;4.22;;
15356;SDS011;7778;48.792;9.260;2023-04-16T12:43:25;7.65;;;4.60;;
15356;SDS011;7778;48.792;9.260;2023-04-16T12:46:11;7.25;;;4.60;;
15356;SDS011;7778;48.792;9.260;2023-04-16T12:48:57;6.45;;;4.38;;
15356;SDS011;7778;48.792;9.260;2023-04-16T12:51:43;9.98;;;5.32;;
15356;SDS011;7778;48.792;9.260;2023-04-16T12:54:30;16.40;;;10.63;;
15356;SDS011;7778;48.792;9.260;2023-04-16T12:57:16;24.92;;;18.75;;
15356;SDS011;7778;48.792;9.260;2023-04-16T13:00:02;8.13;;;5.68;;
15356;SDS011;7778;48.792;9.260;2023-04-16T13:02:50;9.02;;;4.95;;
15356;SDS011;7778;48.792;9.260;2023-04-16T13:05:37;9.70;;;5.45;;
15356;SDS011;7778;48.792;9.260;2023-04-16T13:08:23;14.75;;;6.43;;
15356;SDS011;7778;48.792;9.260;2023-04-16T13:11:09;10.00;;;4.72;;
15356;SDS011;7778;48.792;9.260;2023-04-16T13:13:55;11.13;;;6.22;;
15356;SDS011;7778;48.792;9.260;2023-04-16T13:16:40;13.98;;;7.43;;
15356;SDS011;7778;48.792;9.260;2023-04-16T13:19:26;8.70;;;4.80;;
15356;SDS011;7778;48.792;9.260;2023-04-16T13:22:13;7.55;;;4.45;;
15356;SDS011;7778;48.792;9.260;2023-04-16T13:24:59;7.40;;;4.53;;
15356;SDS011;7778;48.792;9.260;2023-04-16T13:27:44;7.57;;;4.70;;
15356;SDS011;7778;48.792;9.260;2023-04-16T13:30:30;9.15;;;5.30;;
15356;SDS011;7778;48.792;9.260;2023-04-16T13:33:16;10.60;;;5.25;;
15356;SDS011;7778;48.792;9.260;2023-04-16T13:36:02;10.65;;;5.65;;
15356;SDS011;7778;48.792;9.260;2023-04-16T13:38:49;7.95;;;5.10;;
15356;SDS011;7778;48.792;9.260;2023-04-16T13:41:35;9.02;;;4.70;;
15356;SDS011;7778;48.792;9.260;2023-04-16T13:44:20;11.52;;;5.93;;
15356;SDS011;7778;48.792;9.260;2023-04-16T13:47:05;9.90;;;5.97;;
15356;SDS011;7778;48.792;9.260;2023-04-16T13:49:51;9.35;;;5.55;;
15356;SDS011;7778;48.792;9.260;2023-04-16T13:52:37;8.95;;;5.25;;
15356;SDS011;7778;48.792;9.260;2023-04-16T13:55:24;8.82;;;5.47;;
15356;SDS011;7778;48.792;9.260;2023-04-16T13:58:10;10.88;;;6.18;;
15356;SDS011;7778;48.792;9.260;2023-04-16T14:00:55;19.85;;;9.27;;
15356;SDS011;7778;48.792;9.260;2023-04-16T14:03:41;11.73;;;6.20;;
15356;SDS011;7778;48.792;9.260;2023-04-16T14:06:26;7.72;;;5.35;;
15356;SDS011;7778;48.792;9.260;2023-04-16T14:09:12;10.48;;;5.75;;
15356;SDS011;7778;48.792;9.260;2023-04-16T14:12:00;9.70;;;6.10;;
15356;SDS011;7778;48.792;9.260;2023-04-16T14:14:46;9.38;;;5.30;;
15356;SDS011;7778;48.792;9.260;2023-04-16T14:17:31;9.20;;;5.80;;
15356;SDS011;7778;48.792;9.260;2023-04-16T14:20:17;9.77;;;6.13;;
15356;SDS011;7778;48.792;9.260;2023-04-16T14:23:03;11.57;;;6.53;;
15356;SDS011;7778;48.792;9.260;2023-04-16T14:25:49;10.40;;;5.82;;
15356;SDS011;7778;48.792;9.260;2023-04-16T14:28:36;10.80;;;6.13;;
15356;SDS011;7778;48.792;9.260;2023-04-16T14:31:22;12.00;;;6.15;;
15356;SDS011;7778;48.792;9.260;2023-04-16T14:34:08;10.48;;;6.53;;
15356;SDS011;7778;48.792;9.260;2023-04-16T14:36:54;12.98;;;7.22;;
15356;SDS011;7778;48.792;9.260;2023-04-16T14:39:40;13.27;;;7.07;;
15356;SDS011;7778;48.792;9.260;2023-04-16T14:42:25;15.98;;;7.60;;
15356;SDS011;7778;48.792;9.260;2023-04-16T14:45:12;13.10;;;7.28;;
15356;SDS011;7778;48.792;9.260;2023-04-16T14:47:58;13.70;;;7.47;;
15356;SDS011;7778;48.792;9.260;2023-04-16T14:50:44;15.13;;;8.07;;
15356;SDS011;7778;48.792;9.260;2023-04-16T14:53:30;14.80;;;8.15;;
15356;SDS011;7778;48.792;9.260;2023-04-16T14:56:16;14.27;;;7.70;;
15356;SDS011;7778;48.792;9.260;2023-04-16T14:59:02;14.95;;;8.50;;
15356;SDS011;7778;48.792;9.260;2023-04-16T15:01:49;13.70;;;8.75;;
15356;SDS011;7778;48.792;9.260;2023-04-16T15:04:36;15.88;;;8.18;;
15356;SDS011;7778;48.792;9.260;2023-04-16T15:07:22;17.13;;;10.05;;
15356;SDS011;7778;48.792;9.260;2023-04-16T15:10:09;16.02;;;8.95;;
15356;SDS011;7778;48.792;9.260;2023-04-16T15:12:55;22.63;;;15.00;;
15356;SDS011;7778;48.792;9.260;2023-04-16T15:15:40;19.20;;;10.35;;
15356;SDS011;7778;48.792;9.260;2023-04-16T15:18:27;16.83;;;9.38;;
15356;SDS011;7778;48.792;9.260;2023-04-16T15:21:14;20.70;;;11.00;;
15356;SDS011;7778;48.792;9.260;2023-04-16T15:23:59;19.73;;;10.52;;
15356;SDS011;7778;48.792;9.260;2023-04-16T15:26:45;18.27;;;10.30;;
15356;SDS011;7778;48.792;9.260;2023-04-16T15:29:31;18.05;;;10.65;;
15356;SDS011;7778;48.792;9.260;2023-04-16T15:32:16;23.25;;;11.60;;
15356;SDS011;7778;48.792;9.260;2023-04-16T15:35:03;21.13;;;12.23;;
15356;SDS011;7778;48.792;9.260;2023-04-16T15:37:49;23.80;;;13.38;;
15356;SDS011;7778;48.792;9.260;2023-04-16T15:40:36;27.75;;;14.85;;
15356;SDS011;7778;48.792;9.260;2023-04-16T15:43:22;19.00;;;11.60;;
15356;SDS011;7778;48.792;9.260;2023-04-16T15:46:12;28.17;;;13.45;;
15356;SDS011;7778;48.792;9.260;2023-04-16T15:48:58;22.85;;;11.25;;
15356;SDS011;7778;48.792;9.260;2023-04-16T15:51:45;28.50;;;14.43;;
15356;SDS011;7778;48.792;9.260;2023-04-16T15:54:31;22.63;;;11.85;;
15356;SDS011;7778;48.792;9.260;2023-04-16T15:57:17;20.90;;;11.68;;
15356;SDS011;7778;48.792;9.260;2023-04-16T16:00:03;19.58;;;11.85;;
15356;SDS011;7778;48.792;9.260;2023-04-16T16:02:55;25.08;;;11.68;;
15356;SDS011;7778;48.792;9.260;2023-04-16T16:05:41;26.45;;;13.45;;
15356;SDS011;7778;48.792;9.260;2023-04-16T16:08:28;27.25;;;13.45;;
15356;SDS011;7778;48.792;9.260;2023-04-16T16:11:16;23.33;;;11.93;;
15356;SDS011;7778;48.792;9.260;2023-04-16T16:14:02;29.33;;;13.43;;
15356;SDS011;7778;48.792;9.260;2023-04-16T16:16:48;24.25;;;12.30;;
15356;SDS011;7778;48.792;9.260;2023-04-16T16:19:34;23.20;;;12.15;;
15356;SDS011;7778;48.792;9.260;2023-04-16T16:22:19;21.58;;;12.30;;
15356;SDS011;7778;48.792;9.260;2023-04-16T16:25:07;24.17;;;12.43;;
15356;SDS011;7778;48.792;9.260;2023-04-16T16:27:54;27.75;;;13.80;;
15356;SDS011;7778;48.792;9.260;2023-04-16T16:30:39;24.80;;;14.05;;
15356;SDS011;7778;48.792;9.260;2023-04-16T16:33:25;26.10;;;14.30;;
15356;SDS011;7778;48.792;9.260;2023-04-16T16:36:11;25.13;;;12.75;;
15356;SDS011;7778;48.792;9.260;2023-04-16T16:38:57;30.02;;;13.90;;
15356;SDS011;7778;48.792;9.260;2023-04-16T16:41:44;24.65;;;13.73;;